createdAt,value
2023-03-20T00:01:27.565Z,11.50
2023-03-20T00:03:54.445Z,11.50
2023-03-20T00:06:26.475Z,11.50
2023-03-20T00:08:54.623Z,11.50
2023-03-20T00:11:27.258Z,11.50
2023-03-20T00:13:56.311Z,11.50
2023-03-20T00:16:25.377Z,11.40
2023-03-20T00:18:52.036Z,11.40
2023-03-20T00:21:19.684Z,11.40
2023-03-20T00:23:46.343Z,11.40
2023-03-20T00:26:15.201Z,11.40
2023-03-20T00:28:44.318Z,11.30
2023-03-20T00:31:37.474Z,11.30
2023-03-20T00:34:09.935Z,11.30
2023-03-20T00:36:36.600Z,11.20
2023-03-20T00:39:04.105Z,11.10
2023-03-20T00:41:36.526Z,11.10
2023-03-20T00:44:04.658Z,11.10
2023-03-20T00:46:38.328Z,11.10
2023-03-20T00:49:05.518Z,11.00
2023-03-20T00:51:32.478Z,11.00
2023-03-20T00:53:59.287Z,11.00
2023-03-20T00:56:38.372Z,11.00
2023-03-20T00:59:05.315Z,10.90
2023-03-20T01:01:32.346Z,10.90
2023-03-20T01:03:59.998Z,10.90
2023-03-20T01:06:26.730Z,10.90
2023-03-20T01:08:53.371Z,10.80
2023-03-20T01:11:23.676Z,10.80
2023-03-20T01:13:50.536Z,10.80
2023-03-20T01:16:21.946Z,10.70
2023-03-20T01:18:49.587Z,10.70
2023-03-20T01:21:16.832Z,10.70
2023-03-20T01:23:43.530Z,10.60
2023-03-20T01:26:34.846Z,10.60
2023-03-20T01:29:01.585Z,10.60
2023-03-20T01:31:28.365Z,10.60
2023-03-20T01:33:55.054Z,10.60
2023-03-20T01:36:23.928Z,10.60
2023-03-20T01:38:55.946Z,10.60
2023-03-20T01:41:26.131Z,10.60
2023-03-20T01:43:53.378Z,10.60
2023-03-20T01:46:27.452Z,10.60
2023-03-20T01:48:54.092Z,10.50
2023-03-20T01:51:28.344Z,10.50
2023-03-20T01:53:59.912Z,10.50
2023-03-20T01:56:31.717Z,10.50
2023-03-20T01:59:08.003Z,10.50
2023-03-20T02:01:36.162Z,10.50
2023-03-20T02:04:03.766Z,10.60
2023-03-20T02:06:30.412Z,10.50
2023-03-20T02:08:57.074Z,10.60
2023-03-20T02:11:25.366Z,10.60
2023-03-20T02:13:55.494Z,10.50
2023-03-20T02:16:22.231Z,10.50
2023-03-20T02:18:51.465Z,10.50
2023-03-20T02:21:42.924Z,10.50
2023-03-20T02:24:30.748Z,10.50
2023-03-20T02:27:32.473Z,10.40
2023-03-20T02:30:40.511Z,10.30
2023-03-20T02:33:37.972Z,10.40
2023-03-20T02:36:34.873Z,10.40
2023-03-20T02:39:21.679Z,10.40
2023-03-20T02:42:15.235Z,10.40
2023-03-20T02:44:50.585Z,10.40
2023-03-20T02:47:41.864Z,10.30
2023-03-20T02:50:11.257Z,10.40
2023-03-20T02:52:48.676Z,10.40
2023-03-20T02:55:32.151Z,10.30
2023-03-20T02:58:04.942Z,10.30
2023-03-20T03:00:50.274Z,10.30
2023-03-20T03:03:33.121Z,10.20
2023-03-20T03:06:06.851Z,10.30
2023-03-20T03:08:42.493Z,10.20
2023-03-20T03:11:10.172Z,10.20
2023-03-20T03:13:42.635Z,10.30
2023-03-20T03:16:17.690Z,10.30
2023-03-20T03:18:46.488Z,10.40
2023-03-20T03:21:16.843Z,10.40
2023-03-20T03:23:47.183Z,10.40
2023-03-20T03:26:30.424Z,10.40
2023-03-20T03:29:04.756Z,10.40
2023-03-20T03:31:32.110Z,10.40
2023-03-20T03:34:01.268Z,10.40
2023-03-20T03:36:38.454Z,10.40
2023-03-20T03:39:28.962Z,10.30
2023-03-20T03:42:17.591Z,10.30
2023-03-20T03:45:05.002Z,10.30
2023-03-20T03:47:43.143Z,10.30
2023-03-20T03:50:16.719Z,10.20
2023-03-20T03:52:44.508Z,10.20
2023-03-20T03:55:22.623Z,10.10
2023-03-20T03:57:56.129Z,10.10
2023-03-20T04:00:26.097Z,10.10
2023-03-20T04:02:56.256Z,10.10
2023-03-20T04:05:27.597Z,10.10
2023-03-20T04:07:58.005Z,10.10
2023-03-20T04:10:25.193Z,10.20
2023-03-20T04:12:51.984Z,10.20
2023-03-20T04:15:18.782Z,10.20
2023-03-20T04:17:45.535Z,10.20
2023-03-20T04:20:12.996Z,10.20
2023-03-20T04:22:39.972Z,10.20
2023-03-20T04:25:08.551Z,10.10
2023-03-20T04:27:35.316Z,10.10
2023-03-20T04:30:02.015Z,10.10
2023-03-20T04:32:28.698Z,10.00
2023-03-20T04:34:55.364Z,10.10
2023-03-20T04:37:22.011Z,10.10
2023-03-20T04:39:48.701Z,10.10
2023-03-20T04:42:15.378Z,10.10
2023-03-20T04:44:42.051Z,10.00
2023-03-20T04:47:08.691Z,10.00
2023-03-20T04:49:35.344Z,10.00
2023-03-20T04:52:01.989Z,10.00
2023-03-20T04:54:28.647Z,10.00
2023-03-20T04:56:55.366Z,10.00
2023-03-20T04:59:22.078Z,10.00
2023-03-20T05:01:48.731Z,10.00
2023-03-20T05:04:15.555Z,10.00
2023-03-20T05:06:42.499Z,10.00
2023-03-20T05:09:09.643Z,10.00
2023-03-20T05:11:36.696Z,10.00
2023-03-20T05:14:03.382Z,10.00
2023-03-20T05:16:30.085Z,10.00
2023-03-20T05:18:56.807Z,10.00
2023-03-20T05:21:23.454Z,10.00
2023-03-20T05:23:50.128Z,10.00
2023-03-20T05:26:16.878Z,9.90
2023-03-20T05:28:43.669Z,10.00
2023-03-20T05:31:10.518Z,10.00
2023-03-20T05:33:38.364Z,10.00
2023-03-20T05:36:05.841Z,10.00
2023-03-20T05:38:32.728Z,10.00
2023-03-20T05:41:00.452Z,10.00
2023-03-20T05:43:27.579Z,10.00
2023-03-20T05:45:54.780Z,10.00
2023-03-20T05:48:21.921Z,10.10
2023-03-20T05:50:48.862Z,10.10
2023-03-20T05:53:15.875Z,10.00
2023-03-20T05:55:42.617Z,10.00
2023-03-20T05:58:09.361Z,10.10
2023-03-20T06:00:36.101Z,10.10
2023-03-20T06:03:02.891Z,10.00
2023-03-20T06:05:29.609Z,10.00
2023-03-20T06:07:56.325Z,9.90
2023-03-20T06:10:23.000Z,9.90
2023-03-20T06:12:49.850Z,9.90
2023-03-20T06:15:16.649Z,9.80
2023-03-20T06:17:43.310Z,9.80
2023-03-20T06:20:10.495Z,9.80
2023-03-20T06:22:37.279Z,9.80
2023-03-20T06:25:04.638Z,9.70
2023-03-20T06:27:31.426Z,9.60
2023-03-20T06:29:58.121Z,9.60
2023-03-20T06:32:24.853Z,9.50
2023-03-20T06:34:51.513Z,9.40
2023-03-20T06:37:19.673Z,9.30
2023-03-20T06:39:46.501Z,9.20
2023-03-20T06:42:16.044Z,9.20
2023-03-20T06:44:43.270Z,9.10
2023-03-20T06:47:09.977Z,9.00
2023-03-20T06:49:36.721Z,8.90
2023-03-20T06:52:03.600Z,8.90
2023-03-20T06:54:30.326Z,8.90
2023-03-20T06:56:57.006Z,8.90
2023-03-20T06:59:23.732Z,9.00
2023-03-20T07:01:50.587Z,8.90
2023-03-20T07:04:17.321Z,8.80
2023-03-20T07:06:44.179Z,8.70
2023-03-20T07:09:10.875Z,8.70
2023-03-20T07:11:37.608Z,8.70
2023-03-20T07:14:04.279Z,8.70
2023-03-20T07:16:31.167Z,8.60
2023-03-20T07:18:58.183Z,8.60
2023-03-20T07:21:25.160Z,8.60
2023-03-20T07:23:51.994Z,8.50
2023-03-20T07:26:18.814Z,8.50
2023-03-20T07:28:45.576Z,8.40
2023-03-20T07:31:24.125Z,8.50
2023-03-20T07:33:51.017Z,8.50
2023-03-20T07:36:17.920Z,8.50
2023-03-20T07:38:44.704Z,8.60
2023-03-20T07:41:11.752Z,8.50
2023-03-20T07:43:38.787Z,8.50
2023-03-20T07:46:07.236Z,8.40
2023-03-20T07:48:34.929Z,8.40
2023-03-20T07:51:02.219Z,8.50
2023-03-20T07:53:29.046Z,8.50
2023-03-20T07:55:55.958Z,8.40
2023-03-20T07:58:23.782Z,8.40
2023-03-20T08:00:50.927Z,8.40
2023-03-20T08:03:18.121Z,8.40
2023-03-20T08:05:47.230Z,8.40
2023-03-20T08:08:16.366Z,8.50
2023-03-20T08:10:44.546Z,8.60
2023-03-20T08:13:11.422Z,8.70
2023-03-20T08:15:38.817Z,8.80
2023-03-20T08:18:06.059Z,8.90
2023-03-20T08:20:33.541Z,9.00
2023-03-20T08:23:00.391Z,9.00
2023-03-20T08:25:27.209Z,9.00
2023-03-20T08:27:53.984Z,9.20
2023-03-20T08:30:21.042Z,9.20
2023-03-20T08:32:47.859Z,9.10
2023-03-20T08:35:31.896Z,9.00
2023-03-20T08:38:00.277Z,8.90
2023-03-20T08:40:27.321Z,8.90
2023-03-20T08:42:54.258Z,9.00
2023-03-20T08:45:21.170Z,9.00
2023-03-20T08:47:48.698Z,9.00
2023-03-20T08:50:16.494Z,9.20
2023-03-20T08:52:43.498Z,9.30
2023-03-20T08:55:12.115Z,9.40
2023-03-20T08:57:39.272Z,9.40
2023-03-20T09:00:07.877Z,9.40
2023-03-20T09:02:38.407Z,9.60
2023-03-20T09:05:05.907Z,9.70
2023-03-20T09:07:32.812Z,9.80
2023-03-20T09:09:59.854Z,9.80
2023-03-20T09:12:27.789Z,9.90
2023-03-20T09:14:54.613Z,10.00
2023-03-20T09:17:21.459Z,10.00
2023-03-20T09:19:48.316Z,10.00
2023-03-20T09:22:15.913Z,10.10
2023-03-20T09:24:44.697Z,10.30
2023-03-20T09:27:12.270Z,10.40
2023-03-20T09:29:43.736Z,10.40
2023-03-20T09:32:17.655Z,10.30
2023-03-20T09:34:44.524Z,10.40
2023-03-20T09:37:11.396Z,10.50
2023-03-20T09:39:40.880Z,10.60
2023-03-20T09:42:35.825Z,10.60
2023-03-20T09:45:24.375Z,10.50
2023-03-20T09:47:59.257Z,10.50
2023-03-20T09:50:34.337Z,10.60
2023-03-20T09:53:11.153Z,10.70
2023-03-20T09:55:40.951Z,10.70
2023-03-20T09:58:16.862Z,10.60
2023-03-20T10:00:46.452Z,10.80
2023-03-20T10:03:24.994Z,10.80
2023-03-20T10:05:56.061Z,10.80
2023-03-20T10:08:30.079Z,10.80
2023-03-20T10:11:19.727Z,10.70
2023-03-20T10:14:27.361Z,10.60
2023-03-20T10:16:56.943Z,10.70
2023-03-20T10:19:43.439Z,10.60
2023-03-20T10:22:25.741Z,10.60
2023-03-20T10:25:12.826Z,10.50
2023-03-20T10:27:48.579Z,10.60
2023-03-20T10:30:15.349Z,10.60
2023-03-20T10:33:02.583Z,10.60
2023-03-20T10:35:39.645Z,10.60
2023-03-20T10:38:36.268Z,10.60
2023-03-20T10:41:04.016Z,10.70
2023-03-20T10:43:40.527Z,10.60
2023-03-20T10:46:25.229Z,10.60
2023-03-20T10:49:14.792Z,10.60
2023-03-20T10:51:46.150Z,10.60
2023-03-20T10:54:55.491Z,10.70
2023-03-20T10:57:27.801Z,10.80
2023-03-20T10:59:57.569Z,10.80
2023-03-20T11:02:33.706Z,10.90
2023-03-20T11:05:07.578Z,11.00
2023-03-20T11:07:39.066Z,10.90
2023-03-20T11:10:06.361Z,10.90
2023-03-20T11:12:35.742Z,10.90
2023-03-20T11:15:15.551Z,10.90
2023-03-20T11:17:42.430Z,11.00
2023-03-20T11:20:19.229Z,11.00
2023-03-20T11:22:50.313Z,11.00
2023-03-20T11:25:30.865Z,11.00
2023-03-20T11:28:18.439Z,11.00
2023-03-20T11:31:03.615Z,11.00
2023-03-20T11:33:31.994Z,10.90
2023-03-20T11:35:59.897Z,11.00
2023-03-20T11:38:29.781Z,11.10
2023-03-20T11:40:57.637Z,11.10
2023-03-20T11:43:27.922Z,11.10
2023-03-20T11:46:00.452Z,11.10
2023-03-20T11:48:38.438Z,11.20
2023-03-20T11:51:20.380Z,11.20
2023-03-20T11:53:48.193Z,11.30
2023-03-20T11:56:23.094Z,11.30
2023-03-20T11:58:59.871Z,11.40
2023-03-20T12:01:28.837Z,11.40
2023-03-20T12:03:55.737Z,11.20
2023-03-20T12:06:27.703Z,11.20
2023-03-20T12:09:02.853Z,11.10
2023-03-20T12:15:51.774Z,11.10
2023-03-20T12:18:38.922Z,11.20
2023-03-20T12:21:19.898Z,11.10
2023-03-20T12:24:05.227Z,11.20
2023-03-20T12:26:46.807Z,11.20
2023-03-20T12:29:31.750Z,11.40
2023-03-20T12:33:00.313Z,11.30
2023-03-20T12:35:37.929Z,11.30
2023-03-20T12:38:21.990Z,11.50
2023-03-20T12:40:54.078Z,11.50
2023-03-20T12:43:40.349Z,11.40
2023-03-20T12:46:18.413Z,11.20
2023-03-20T12:49:03.153Z,11.30
2023-03-20T12:51:59.241Z,11.20
2023-03-20T12:54:51.176Z,11.30
2023-03-20T12:58:09.027Z,11.30
2023-03-20T13:01:20.963Z,11.30
2023-03-20T13:03:51.805Z,11.10
2023-03-20T13:06:45.148Z,11.10
2023-03-20T13:09:20.724Z,11.00
2023-03-20T13:12:45.111Z,11.00
2023-03-20T13:15:21.203Z,11.10
2023-03-20T13:18:03.204Z,11.20
2023-03-20T13:20:50.364Z,11.30
2023-03-20T13:23:34.975Z,11.20
2023-03-20T13:26:07.424Z,11.20
2023-03-20T13:28:52.944Z,11.20
2023-03-20T13:31:47.512Z,11.20
2023-03-20T13:34:38.584Z,11.10
2023-03-20T13:37:25.030Z,11.20
2023-03-20T13:40:12.761Z,11.20
2023-03-20T13:42:56.893Z,11.20
2023-03-20T13:45:28.932Z,11.20
2023-03-20T13:48:00.235Z,11.30
2023-03-20T13:51:05.492Z,11.30
2023-03-20T13:53:45.722Z,11.30
2023-03-20T13:56:47.290Z,11.20
2023-03-20T13:59:41.846Z,11.10
2023-03-20T14:02:29.796Z,11.10
2023-03-20T14:05:22.438Z,11.10
2023-03-20T14:07:54.942Z,11.00
2023-03-20T14:10:24.656Z,11.00
2023-03-20T14:12:56.435Z,11.00
2023-03-20T14:15:33.459Z,10.90
2023-03-20T14:18:11.796Z,11.00
2023-03-20T14:20:41.278Z,11.00
2023-03-20T14:23:20.468Z,11.00
2023-03-20T14:25:48.828Z,11.00
2023-03-20T14:28:17.642Z,10.80
2023-03-20T14:30:50.709Z,10.80
2023-03-20T14:33:17.714Z,10.80
2023-03-20T14:35:46.099Z,10.80
2023-03-20T14:38:35.717Z,10.80
2023-03-20T14:41:41.956Z,10.80
2023-03-20T14:45:07.324Z,10.80
2023-03-20T14:48:21.462Z,10.70
2023-03-20T14:51:08.576Z,10.60
2023-03-20T14:53:36.184Z,10.70
2023-03-20T14:56:36.550Z,10.70
2023-03-20T14:59:22.626Z,10.70
2023-03-20T15:01:58.943Z,10.70
2023-03-20T15:04:54.162Z,10.60
2023-03-20T15:07:29.996Z,10.70
2023-03-20T15:10:17.260Z,10.60
2023-03-20T15:13:44.880Z,10.70
2023-03-20T15:19:27.936Z,10.70
2023-03-20T15:25:08.133Z,10.60
2023-03-20T15:31:33.617Z,10.70
2023-03-20T15:34:22.812Z,10.70
2023-03-20T15:37:11.172Z,10.70
2023-03-20T15:39:42.612Z,10.80
2023-03-20T15:42:20.821Z,10.70
2023-03-20T15:44:50.293Z,10.70
2023-03-20T15:47:28.291Z,10.70
2023-03-20T15:50:00.094Z,10.70
2023-03-20T15:52:46.313Z,10.70
2023-03-20T15:55:16.506Z,10.70
2023-03-20T15:57:44.575Z,10.70
2023-03-20T16:00:38.703Z,10.70
2023-03-20T16:03:08.391Z,10.70
2023-03-20T16:05:35.452Z,10.60
2023-03-20T16:08:22.037Z,10.70
2023-03-20T16:10:48.855Z,10.70
2023-03-20T16:13:16.746Z,10.70
2023-03-20T16:15:44.557Z,10.70
2023-03-20T16:18:17.587Z,10.60
2023-03-20T16:20:51.304Z,10.50
2023-03-20T16:23:45.849Z,10.50
2023-03-20T16:26:17.613Z,10.50
2023-03-20T16:28:51.273Z,10.50
2023-03-20T16:31:31.002Z,10.50
2023-03-20T16:34:23.215Z,10.50
2023-03-20T16:36:58.043Z,10.50
2023-03-20T16:39:28.536Z,10.40
2023-03-20T16:42:09.514Z,10.30
2023-03-20T16:44:36.768Z,10.30
2023-03-20T16:47:36.926Z,10.30
2023-03-20T16:50:33.573Z,10.20
2023-03-20T16:53:00.468Z,10.20
2023-03-20T16:55:34.118Z,10.20
2023-03-20T16:58:05.452Z,10.20
2023-03-20T17:00:52.810Z,10.10
2023-03-20T17:03:26.586Z,10.10
2023-03-20T17:06:24.427Z,10.10
2023-03-20T17:09:08.600Z,10.10
2023-03-20T17:11:38.398Z,10.10
2023-03-20T17:14:05.561Z,10.10
2023-03-20T17:16:33.129Z,10.10
2023-03-20T17:19:11.229Z,10.10
2023-03-20T17:21:38.500Z,10.10
2023-03-20T17:24:07.062Z,10.10
2023-03-20T17:26:33.959Z,10.10
2023-03-20T17:29:00.801Z,10.10
2023-03-20T17:31:27.612Z,10.10
2023-03-20T17:33:54.641Z,10.10
2023-03-20T17:36:25.271Z,10.00
2023-03-20T17:38:54.770Z,10.00
2023-03-20T17:41:21.945Z,10.00
2023-03-20T17:43:49.458Z,10.00
2023-03-20T17:46:21.776Z,10.00
2023-03-20T17:48:49.621Z,10.00
2023-03-20T17:51:16.905Z,9.90
2023-03-20T17:53:43.595Z,9.90
2023-03-20T17:56:13.222Z,9.90
2023-03-20T17:58:41.117Z,10.00
2023-03-20T18:01:09.571Z,9.90
2023-03-20T18:03:36.560Z,9.90
2023-03-20T18:06:04.756Z,9.90
2023-03-20T18:08:31.569Z,9.90
2023-03-20T18:10:58.936Z,9.90
2023-03-20T18:13:26.588Z,9.90
2023-03-20T18:15:58.594Z,9.80
2023-03-20T18:18:25.847Z,9.90
2023-03-20T18:20:52.632Z,9.90
2023-03-20T18:23:19.379Z,9.80
2023-03-20T18:25:46.116Z,9.80
2023-03-20T18:28:15.447Z,9.80
2023-03-20T18:30:42.239Z,9.80
2023-03-20T18:33:10.640Z,9.80
2023-03-20T18:35:38.393Z,9.90
2023-03-20T18:38:05.375Z,9.80
2023-03-20T18:40:35.356Z,9.80
2023-03-20T18:43:04.786Z,9.80
2023-03-20T18:45:32.657Z,9.90
2023-03-20T18:48:00.151Z,9.80
2023-03-20T18:50:37.549Z,9.80
2023-03-20T18:53:08.737Z,9.80
2023-03-20T18:55:36.901Z,9.80
2023-03-20T18:58:04.229Z,9.80
2023-03-20T19:00:37.176Z,9.80
2023-03-20T19:03:04.595Z,9.80
2023-03-20T19:05:31.677Z,9.80
2023-03-20T19:07:58.983Z,9.80
2023-03-20T19:10:36.158Z,9.80
2023-03-20T19:13:05.245Z,9.80
2023-03-20T19:15:34.197Z,9.80
2023-03-20T19:18:02.966Z,9.70
2023-03-20T19:20:46.737Z,9.80
2023-03-20T19:23:15.190Z,9.80
2023-03-20T19:25:44.252Z,9.80
2023-03-20T19:28:21.916Z,9.80
2023-03-20T19:30:51.628Z,9.80
2023-03-20T19:33:19.262Z,9.80
2023-03-20T19:36:11.769Z,9.80
2023-03-20T19:38:34.833Z,9.80
2023-03-20T19:41:02.002Z,9.80
2023-03-20T19:43:29.430Z,9.80
2023-03-20T19:45:59.568Z,9.80
2023-03-20T19:48:46.165Z,9.80
2023-03-20T19:51:18.609Z,9.80
2023-03-20T19:53:47.704Z,9.80
2023-03-20T19:56:16.324Z,9.80
2023-03-20T19:58:43.460Z,9.70
2023-03-20T20:01:20.101Z,9.70
2023-03-20T20:03:48.020Z,9.60
2023-03-20T20:06:15.945Z,9.60
2023-03-20T20:08:48.696Z,9.60
2023-03-20T20:11:17.726Z,9.60
2023-03-20T20:16:31.731Z,9.60
2023-03-20T20:18:58.703Z,9.60
2023-03-20T20:24:12.438Z,9.50
2023-03-20T20:26:47.861Z,9.50
2023-03-20T20:29:20.481Z,9.50
2023-03-20T20:31:47.700Z,9.50
2023-03-20T20:35:21.967Z,9.60
2023-03-20T20:37:47.470Z,9.60
2023-03-20T20:39:49.419Z,9.60
2023-03-20T20:42:17.415Z,9.60
2023-03-20T20:44:44.801Z,9.60
2023-03-20T20:47:12.304Z,9.60
2023-03-20T20:49:39.278Z,9.50
2023-03-20T20:52:06.454Z,9.50
2023-03-20T20:54:33.718Z,9.50
2023-03-20T20:57:01.030Z,9.40
2023-03-20T20:59:27.944Z,9.40
2023-03-20T21:01:54.708Z,9.40
2023-03-20T21:04:21.695Z,9.40
2023-03-20T21:07:09.868Z,9.40
2023-03-20T21:09:35.666Z,9.40
2023-03-20T21:12:04.578Z,9.40
2023-03-20T21:14:31.510Z,9.40
2023-03-20T21:16:58.478Z,9.40
2023-03-20T21:19:27.946Z,9.40
2023-03-20T21:21:54.728Z,9.40
2023-03-20T21:24:37.081Z,9.40
2023-03-20T21:27:08.472Z,9.40
2023-03-20T21:39:56.616Z,9.30
2023-03-20T21:42:23.349Z,9.30
2023-03-20T21:46:02.727Z,9.20
2023-03-20T21:50:52.504Z,9.30
2023-03-20T21:54:07.379Z,9.20
2023-03-20T21:56:41.712Z,9.20
2023-03-20T21:59:24.115Z,9.30
2023-03-20T22:02:02.397Z,9.30
2023-03-20T22:05:16.335Z,9.30
2023-03-20T22:07:38.441Z,9.30
2023-03-20T22:10:34.537Z,9.40
2023-03-20T22:16:10.043Z,9.30
2023-03-20T22:19:11.942Z,9.30
2023-03-20T22:38:24.351Z,9.30
2023-03-20T22:46:19.584Z,9.30
2023-03-20T22:48:50.018Z,9.30
2023-03-20T22:51:18.411Z,9.20
2023-03-20T22:53:47.207Z,9.20
2023-03-20T22:56:14.263Z,9.20
2023-03-20T22:58:43.644Z,9.10
2023-03-20T23:01:11.182Z,9.10
2023-03-20T23:03:41.866Z,9.10
2023-03-20T23:06:10.465Z,9.00
2023-03-20T23:08:48.091Z,9.10
2023-03-20T23:11:17.378Z,9.00
2023-03-20T23:13:44.946Z,9.10
2023-03-20T23:16:12.127Z,9.00
2023-03-20T23:18:38.892Z,8.90
2023-03-20T23:21:05.961Z,8.90
2023-03-20T23:23:32.791Z,8.90
2023-03-20T23:26:11.271Z,8.90
2023-03-20T23:28:38.951Z,8.90
2023-03-20T23:31:14.186Z,9.00
2023-03-20T23:33:43.168Z,8.90
2023-03-20T23:36:21.367Z,8.90
2023-03-20T23:38:55.493Z,8.90
2023-03-20T23:41:36.753Z,8.90
2023-03-20T23:44:09.301Z,8.90
2023-03-20T23:46:35.943Z,8.90
2023-03-20T23:49:02.877Z,8.90
2023-03-20T23:51:29.645Z,8.80
2023-03-20T23:53:56.393Z,8.80
2023-03-20T23:56:23.099Z,8.80
2023-03-20T23:58:58.283Z,8.80
